Time;durP1;ratioP1;P1;durP2;ratioP2;P2;SDS_P1;SDS_P2;PMS_P1;PMS_P2;Temp;Humidity;BMP_temperature;BMP_pressure;BME280_temperature;BME280_humidity;BME280_pressure;Samples;Min_cycle;Max_cycle;Signal;HPM_P1;HPM_P2
2021/06/07 00:02:16;;;;;;;7.53;6.38;;;;;;;15.44;72.18;100650.19;4994643;28;20042;-57
2021/06/07 00:04:42;;;;;;;10.93;7.13;;;;;;;15.43;72.09;100659.78;4977236;28;20034;-57
2021/06/07 00:07:10;;;;;;;10.82;6.57;;;;;;;15.42;71.98;100660.66;4994797;28;20045;-56
2021/06/07 00:09:39;;;;;;;7.68;6.40;;;;;;;15.42;72.07;100658.03;4994770;28;20150;-57
2021/06/07 00:12:16;;;;;;;11.32;6.88;;;;;;;15.42;72.13;100662.38;4977143;28;20486;-57
2021/06/07 00:14:45;;;;;;;11.07;6.78;;;;;;;15.41;71.95;100660.66;4994847;28;20034;-57
2021/06/07 00:17:13;;;;;;;9.05;6.60;;;;;;;15.38;71.95;100659.75;4976981;28;20042;-57
2021/06/07 00:19:42;;;;;;;9.15;6.60;;;;;;;15.38;71.97;100664.09;4994488;28;20038;-57
2021/06/07 00:22:09;;;;;;;10.23;6.85;;;;;;;15.35;71.85;100654.50;4994729;28;20121;-57
2021/06/07 00:24:38;;;;;;;8.57;6.65;;;;;;;15.36;72.58;100658.00;4976937;28;20034;-57
2021/06/07 00:27:04;;;;;;;9.15;7.57;;;;;;;15.35;71.97;100654.50;4976861;28;20080;-56
2021/06/07 00:29:33;;;;;;;10.25;7.70;;;;;;;15.34;71.77;100654.50;4977035;28;20039;-57
2021/06/07 00:32:02;;;;;;;9.50;7.78;;;;;;;15.33;71.95;100647.56;4993858;28;20042;-57
2021/06/07 00:34:30;;;;;;;11.15;9.13;;;;;;;15.32;71.87;100645.81;4977023;28;20042;-57
2021/06/07 00:36:58;;;;;;;10.95;9.27;;;;;;;15.31;72.09;100647.53;4994620;28;20038;-57
2021/06/07 00:39:23;;;;;;;13.15;10.00;;;;;;;15.31;71.82;100644.06;4977023;28;20062;-57
2021/06/07 00:41:49;;;;;;;13.57;9.80;;;;;;;15.30;72.01;100650.13;4993697;28;20524;-57
2021/06/07 00:44:19;;;;;;;14.15;9.70;;;;;;;15.30;71.74;100652.75;4976958;28;20042;-57
2021/06/07 00:46:48;;;;;;;17.75;9.50;;;;;;;15.28;71.89;100651.84;4993905;28;20474;-57
2021/06/07 00:49:19;;;;;;;14.38;10.30;;;;;;;15.27;71.98;100650.09;4976646;28;20089;-57
2021/06/07 00:51:45;;;;;;;11.73;10.07;;;;;;;15.26;71.91;100653.59;4976910;28;20073;-57
2021/06/07 00:54:14;;;;;;;12.07;9.98;;;;;;;15.23;72.00;100650.09;4977011;28;20122;-56
2021/06/07 00:56:43;;;;;;;11.77;9.77;;;;;;;15.22;71.85;100657.91;4993971;28;20049;-57
2021/06/07 00:59:12;;;;;;;15.00;10.48;;;;;;;15.20;72.00;100649.19;4993827;28;20030;-57
2021/06/07 01:01:38;;;;;;;12.00;9.60;;;;;;;15.19;71.92;100650.91;4960647;28;20180;-57
2021/06/07 01:04:04;;;;;;;13.45;9.82;;;;;;;15.17;71.95;100650.06;4977339;28;20513;-57
2021/06/07 01:06:31;;;;;;;12.75;9.85;;;;;;;15.16;71.74;100660.47;4960509;28;20039;-57
2021/06/07 01:08:58;;;;;;;10.93;9.18;;;;;;;15.14;71.73;100651.75;4976434;28;20052;-57
2021/06/07 01:11:26;;;;;;;12.40;9.18;;;;;;;15.13;71.78;100657.84;4993554;28;20038;-57
2021/06/07 01:13:52;;;;;;;10.73;9.13;;;;;;;15.12;71.99;100656.09;4993951;28;20038;-58
2021/06/07 01:16:24;;;;;;;9.63;8.30;;;;;;;15.10;71.80;100650.88;4993952;28;20508;-56
2021/06/07 01:18:53;;;;;;;11.32;9.00;;;;;;;15.07;71.57;100646.50;4976349;28;20038;-56
2021/06/07 01:21:24;;;;;;;13.73;9.25;;;;;;;15.05;71.63;100652.56;4993934;28;20062;-57
2021/06/07 01:23:50;;;;;;;13.43;7.80;;;;;;;15.03;71.80;100652.56;4976663;28;20034;-57
2021/06/07 01:26:18;;;;;;;10.43;7.95;;;;;;;15.01;71.59;100654.28;4993787;28;20048;-56
2021/06/07 01:28:47;;;;;;;11.00;7.50;;;;;;;15.00;71.65;100662.13;4976828;28;20038;-56
2021/06/07 01:31:17;;;;;;;8.43;6.70;;;;;;;14.99;71.62;100649.94;4975965;28;20046;-55
2021/06/07 01:33:47;;;;;;;10.02;7.90;;;;;;;14.98;71.67;100651.63;4994332;28;20042;-55
2021/06/07 01:36:13;;;;;;;8.40;6.65;;;;;;;14.96;71.74;100647.28;4993274;28;20034;-56
2021/06/07 01:38:41;;;;;;;11.82;6.80;;;;;;;14.94;71.59;100646.41;4993931;28;20046;-56
2021/06/07 01:41:16;;;;;;;8.40;6.75;;;;;;;14.92;71.71;100647.25;4993624;28;20078;-57
2021/06/07 01:43:46;;;;;;;8.48;6.35;;;;;;;14.92;71.66;100646.41;4993781;28;20096;-57
2021/06/07 01:46:11;;;;;;;9.10;6.53;;;;;;;14.91;71.67;100652.47;4993285;28;20049;-57
2021/06/07 01:48:37;;;;;;;8.52;5.72;;;;;;;14.88;71.50;100653.31;4993556;28;20038;-57
2021/06/07 01:51:08;;;;;;;6.50;5.72;;;;;;;14.87;71.57;100654.16;4993969;28;20046;-57
2021/06/07 01:53:37;;;;;;;11.68;6.38;;;;;;;14.85;71.69;100644.59;4996090;28;20185;-57
2021/06/07 01:56:06;;;;;;;9.98;5.95;;;;;;;14.83;71.54;100643.69;4997390;28;20065;-57
2021/06/07 01:58:32;;;;;;;7.38;6.05;;;;;;;14.82;71.50;100637.63;4997142;28;20114;-57
2021/06/07 02:01:10;;;;;;;8.15;6.65;;;;;;;14.80;71.57;100648.88;4997265;28;20065;-57
2021/06/07 02:03:37;;;;;;;8.75;6.03;;;;;;;14.78;71.52;100643.66;4979540;28;20105;-57
2021/06/07 02:06:07;;;;;;;7.10;6.00;;;;;;;14.77;71.31;100650.63;4997252;28;20034;-56
2021/06/07 02:08:34;;;;;;;8.00;5.72;;;;;;;14.75;71.36;100643.63;4980249;28;20042;-55
2021/06/07 02:11:22;;;;;;;7.30;5.72;;;;;;;14.72;71.39;100649.72;4996634;28;20056;-55
2021/06/07 02:13:49;;;;;;;7.88;5.65;;;;;;;14.70;71.31;100640.13;4980007;28;20031;-55
2021/06/07 02:16:24;;;;;;;9.90;5.68;;;;;;;14.68;71.38;100650.53;4996670;28;20078;-55
2021/06/07 02:18:50;;;;;;;8.55;5.72;;;;;;;14.69;71.20;100647.06;4996745;28;20037;-55
2021/06/07 02:21:18;;;;;;;9.30;6.43;;;;;;;14.67;71.18;100643.53;4996634;28;20042;-55
2021/06/07 02:23:43;;;;;;;7.18;5.78;;;;;;;14.68;71.39;100639.25;4996619;28;20089;-56
2021/06/07 02:26:09;;;;;;;6.53;5.75;;;;;;;14.66;71.31;100633.09;4979186;28;20045;-56
2021/06/07 02:28:39;;;;;;;7.50;5.80;;;;;;;14.64;71.20;100640.88;4962945;28;20030;-56
2021/06/07 02:31:11;;;;;;;10.98;6.20;;;;;;;14.62;71.39;100643.50;4996693;28;20048;-56
2021/06/07 02:33:36;;;;;;;7.10;5.20;;;;;;;14.61;71.41;100638.28;4997120;28;20034;-56
2021/06/07 02:36:03;;;;;;;7.05;4.97;;;;;;;14.59;71.40;100638.25;4996342;28;20047;-56
2021/06/07 02:38:31;;;;;;;8.88;5.75;;;;;;;14.57;71.36;100637.34;4996306;28;20509;-57
2021/06/07 02:40:57;;;;;;;8.95;5.60;;;;;;;14.56;71.13;100639.97;4978847;28;20096;-55
2021/06/07 02:43:25;;;;;;;7.72;6.10;;;;;;;14.54;71.26;100642.56;4979090;28;20038;-55
2021/06/07 02:45:51;;;;;;;9.18;5.97;;;;;;;14.54;71.25;100636.47;4962736;28;20409;-55
2021/06/07 02:48:21;;;;;;;7.32;6.28;;;;;;;14.51;71.34;100642.53;4979469;28;20038;-55
2021/06/07 02:50:50;;;;;;;6.25;5.65;;;;;;;14.51;71.12;100647.75;4962648;28;20038;-55
2021/06/07 02:53:20;;;;;;;8.70;6.03;;;;;;;14.48;71.34;100639.03;4995781;28;20038;-55
2021/06/07 02:55:53;;;;;;;9.65;6.03;;;;;;;14.45;71.41;100642.47;4996046;28;20404;-57
2021/06/07 02:58:21;;;;;;;9.02;6.05;;;;;;;14.44;71.23;100641.59;4978656;28;20058;-57
2021/06/07 03:00:52;;;;;;;7.20;6.50;;;;;;;14.42;71.32;100651.16;4996498;28;20073;-56
2021/06/07 03:03:21;;;;;;;8.90;6.10;;;;;;;14.41;71.07;100649.38;4996106;28;20137;-55
2021/06/07 03:05:51;;;;;;;7.30;6.18;;;;;;;14.40;71.25;100654.59;4995144;28;20038;-56
2021/06/07 03:08:28;;;;;;;7.35;6.20;;;;;;;14.39;71.29;100648.50;4978975;28;20560;-55
2021/06/07 03:10:59;;;;;;;8.00;7.20;;;;;;;14.38;71.01;100645.88;4995899;28;20069;-55
2021/06/07 03:13:26;;;;;;;11.05;6.13;;;;;;;14.36;71.05;100648.47;4962785;28;20041;-55
2021/06/07 03:15:54;;;;;;;10.43;5.93;;;;;;;14.35;71.11;100649.31;4962318;28;20046;-55
2021/06/07 03:18:20;;;;;;;9.02;6.93;;;;;;;14.35;70.89;100653.69;4996031;28;20122;-55
2021/06/07 03:20:51;;;;;;;11.25;6.25;;;;;;;14.33;71.23;100656.25;4995187;28;20070;-55
2021/06/07 03:23:23;;;;;;;9.38;6.43;;;;;;;14.32;70.92;100665.81;4962506;28;20143;-55
2021/06/07 03:25:53;;;;;;;10.05;6.78;;;;;;;14.31;71.26;100658.84;4977947;28;20489;-56
2021/06/07 03:28:22;;;;;;;7.88;6.65;;;;;;;14.30;70.93;100659.72;4995380;28;20041;-56
2021/06/07 03:30:51;;;;;;;11.10;6.10;;;;;;;14.30;70.97;100657.09;4995127;28;20101;-57
2021/06/07 03:33:20;;;;;;;8.68;6.57;;;;;;;14.28;71.18;100661.41;4995743;28;20041;-57
2021/06/07 03:35:48;;;;;;;9.02;6.43;;;;;;;14.29;71.02;100664.91;4995472;28;20490;-57
2021/06/07 03:38:15;;;;;;;7.45;6.18;;;;;;;14.27;70.96;100664.88;4977726;28;20034;-57
2021/06/07 03:40:44;;;;;;;6.65;5.70;;;;;;;14.26;70.89;100663.13;4995149;28;20077;-56
2021/06/07 03:43:10;;;;;;;8.82;6.53;;;;;;;14.26;71.15;100657.91;4978034;28;20076;-56
2021/06/07 03:45:38;;;;;;;9.10;6.00;;;;;;;14.26;71.11;100649.25;4995014;28;20068;-56
2021/06/07 03:48:09;;;;;;;9.23;6.25;;;;;;;14.25;70.92;100650.94;4995196;28;20034;-56
2021/06/07 03:50:39;;;;;;;11.18;6.20;;;;;;;14.25;70.88;100650.94;4994816;28;20038;-56
2021/06/07 03:53:09;;;;;;;9.88;5.93;;;;;;;14.25;71.10;100650.09;4977722;28;20038;-56
2021/06/07 03:55:35;;;;;;;6.70;5.80;;;;;;;14.23;70.93;100660.53;4978105;28;20034;-56
2021/06/07 03:58:06;;;;;;;8.52;6.15;;;;;;;14.23;71.05;100665.72;4994887;28;20045;-56
2021/06/07 04:00:37;;;;;;;7.00;5.80;;;;;;;14.22;71.05;100661.38;4976981;28;20041;-56
2021/06/07 04:03:05;;;;;;;8.75;5.90;;;;;;;14.22;70.92;100666.59;4995178;28;20545;-57
2021/06/07 04:05:34;;;;;;;7.28;6.03;;;;;;;14.20;70.84;100664.81;4994890;28;20038;-57
2021/06/07 04:08:09;;;;;;;5.95;5.35;;;;;;;14.19;70.90;100660.44;4977146;28;20068;-56
2021/06/07 04:10:34;;;;;;;6.10;4.93;;;;;;;14.18;70.83;100658.69;4977628;28;20482;-56
2021/06/07 04:13:03;;;;;;;7.45;6.10;;;;;;;14.18;70.80;100658.69;4994779;28;20046;-56
2021/06/07 04:15:30;;;;;;;9.30;6.07;;;;;;;14.16;70.74;100662.19;4976953;28;20433;-56
2021/06/07 04:18:00;;;;;;;8.20;5.47;;;;;;;14.15;70.84;100659.53;4994023;28;20038;-57
2021/06/07 04:20:28;;;;;;;9.10;5.40;;;;;;;14.14;70.77;100657.78;4977014;28;20089;-56
2021/06/07 04:22:54;;;;;;;6.25;5.35;;;;;;;14.15;70.73;100667.38;4994255;28;20042;-57
2021/06/07 04:25:22;;;;;;;8.13;5.32;;;;;;;14.13;70.76;100662.16;4994640;28;20031;-57
2021/06/07 04:27:49;;;;;;;9.30;5.60;;;;;;;14.14;70.89;100663.91;4977183;28;20042;-56
2021/06/07 04:30:18;;;;;;;6.47;5.47;;;;;;;14.13;70.72;100661.25;4994392;28;20034;-57
2021/06/07 04:32:46;;;;;;;9.20;5.15;;;;;;;14.13;70.75;100666.47;4976886;28;20034;-57
2021/06/07 04:35:14;;;;;;;6.75;5.22;;;;;;;14.13;70.92;100656.94;4977589;28;20042;-57
2021/06/07 04:37:49;;;;;;;9.05;5.18;;;;;;;14.13;70.69;100661.25;4994504;28;20042;-56
2021/06/07 04:40:16;;;;;;;5.90;5.30;;;;;;;14.13;70.75;100658.66;4977147;28;20026;-57
2021/06/07 04:42:45;;;;;;;7.35;5.53;;;;;;;14.13;70.66;100664.75;4994659;28;20046;-56
2021/06/07 04:45:13;;;;;;;7.72;5.35;;;;;;;14.14;70.85;100657.78;4976978;28;20026;-57
2021/06/07 04:47:42;;;;;;;8.82;6.28;;;;;;;14.14;70.68;100657.78;4993910;28;20193;-57
2021/06/07 04:50:08;;;;;;;6.82;5.13;;;;;;;14.15;70.87;100664.75;4960639;28;20124;-56
2021/06/07 04:52:36;;;;;;;8.40;5.60;;;;;;;14.15;70.54;100663.03;4960705;28;20049;-56
2021/06/07 04:55:03;;;;;;;8.38;5.35;;;;;;;14.16;70.89;100663.91;4993661;28;20112;-56
2021/06/07 04:57:37;;;;;;;10.13;5.25;;;;;;;14.15;70.89;100657.81;4994095;28;20034;-57
2021/06/07 05:00:05;;;;;;;7.85;5.35;;;;;;;14.15;70.93;100657.81;4994523;28;20030;-56
2021/06/07 05:02:31;;;;;;;8.20;5.63;;;;;;;14.17;71.00;100657.84;4993703;28;20049;-57
2021/06/07 05:05:05;;;;;;;6.88;5.63;;;;;;;14.18;70.90;100662.19;4993674;28;20038;-57
2021/06/07 05:07:33;;;;;;;7.00;5.78;;;;;;;14.19;71.11;100656.13;4976550;28;20034;-57
2021/06/07 05:10:03;;;;;;;7.80;6.18;;;;;;;14.21;70.75;100663.94;4993973;28;20101;-56
2021/06/07 05:12:31;;;;;;;14.60;6.93;;;;;;;14.22;70.71;100666.59;4993967;28;20038;-56
2021/06/07 05:15:04;;;;;;;10.95;6.32;;;;;;;14.24;70.85;100669.19;4976419;28;20105;-56
2021/06/07 05:17:33;;;;;;;7.63;6.28;;;;;;;14.25;71.01;100670.94;4976382;28;20042;-57
2021/06/07 05:19:59;;;;;;;7.40;6.38;;;;;;;14.29;70.85;100672.75;4976650;28;20037;-57
2021/06/07 05:22:27;;;;;;;12.68;6.78;;;;;;;14.30;71.01;100666.66;4976341;28;20042;-57
2021/06/07 05:25:00;;;;;;;7.10;5.60;;;;;;;14.32;71.12;100671.03;4993890;28;20129;-57
2021/06/07 05:27:28;;;;;;;13.05;6.43;;;;;;;14.35;71.02;100674.53;4994660;28;20124;-57
2021/06/07 05:29:59;;;;;;;7.22;6.45;;;;;;;14.37;70.86;100681.50;4997646;28;20501;-57
2021/06/07 05:32:25;;;;;;;9.35;6.60;;;;;;;14.39;71.06;100678.94;4963843;28;20053;-57
2021/06/07 05:34:57;;;;;;;9.30;6.70;;;;;;;14.41;70.75;100683.28;4997600;28;20031;-56
2021/06/07 05:37:22;;;;;;;10.88;7.93;;;;;;;14.41;70.90;100680.69;4997623;28;20073;-57
2021/06/07 05:39:51;;;;;;;9.05;6.90;;;;;;;14.43;70.91;100680.69;4997528;28;20062;-57
2021/06/07 05:42:17;;;;;;;15.05;6.95;;;;;;;14.45;71.13;100678.97;4980199;28;20034;-57
2021/06/07 05:44:45;;;;;;;8.93;6.50;;;;;;;14.46;71.07;100684.22;4997509;28;20485;-56
2021/06/07 05:47:13;;;;;;;15.40;8.07;;;;;;;14.47;71.05;100685.09;4997342;28;20133;-57
2021/06/07 05:49:39;;;;;;;9.15;7.75;;;;;;;14.49;71.22;100687.69;4997362;28;20506;-57
2021/06/07 05:52:13;;;;;;;11.07;7.78;;;;;;;14.48;71.03;100684.22;4997293;28;20089;-57
2021/06/07 05:54:43;;;;;;;14.07;6.97;;;;;;;14.51;71.19;100681.66;4997398;28;20034;-57
2021/06/07 05:57:14;;;;;;;11.85;7.60;;;;;;;14.53;71.21;100687.78;4997344;28;20072;-57
2021/06/07 05:59:43;;;;;;;9.75;7.65;;;;;;;14.56;71.24;100697.34;4979633;28;20034;-57
2021/06/07 06:02:10;;;;;;;9.75;7.95;;;;;;;14.56;70.93;100682.56;4997143;28;20144;-57
2021/06/07 06:04:40;;;;;;;11.75;9.15;;;;;;;14.59;71.14;100692.16;4979789;28;20034;-57
2021/06/07 06:07:07;;;;;;;11.40;9.25;;;;;;;14.60;71.24;100686.94;4963516;28;20561;-57
2021/06/07 06:09:33;;;;;;;9.68;8.68;;;;;;;14.61;71.16;100686.09;4997201;28;20066;-57
2021/06/07 06:11:58;;;;;;;11.95;8.63;;;;;;;14.64;71.14;100687.00;4997220;28;20042;-57
2021/06/07 06:14:28;;;;;;;9.50;8.23;;;;;;;14.64;71.03;100695.69;4997144;28;20100;-57
2021/06/07 06:16:58;;;;;;;11.35;8.43;;;;;;;14.66;71.15;100693.09;4963374;28;20042;-56
2021/06/07 06:19:24;;;;;;;12.70;8.50;;;;;;;14.67;71.15;100681.81;4996842;28;20433;-57
2021/06/07 06:21:51;;;;;;;9.32;8.23;;;;;;;14.68;71.28;100678.38;4979217;28;20038;-57
2021/06/07 06:24:19;;;;;;;10.48;8.60;;;;;;;14.70;71.17;100676.66;4996924;28;20490;-57
2021/06/07 06:26:47;;;;;;;10.23;8.50;;;;;;;14.72;71.03;100685.34;4979494;28;20049;-57
2021/06/07 06:29:16;;;;;;;13.45;9.40;;;;;;;14.73;70.94;100679.25;4996358;28;20042;-56
2021/06/07 06:31:44;;;;;;;12.82;9.93;;;;;;;14.75;71.28;100680.16;4996336;28;20038;-57
2021/06/07 06:34:15;;;;;;;16.13;9.57;;;;;;;14.76;71.25;100680.19;4996542;28;20034;-57
2021/06/07 06:36:40;;;;;;;12.20;10.82;;;;;;;14.77;71.19;100684.56;4996957;28;20062;-57
2021/06/07 06:39:08;;;;;;;12.05;10.52;;;;;;;14.77;71.26;100679.34;4995763;28;20069;-57
2021/06/07 06:41:34;;;;;;;11.80;9.93;;;;;;;14.79;71.29;100676.72;4996017;28;20046;-57
2021/06/07 06:44:04;;;;;;;11.90;9.68;;;;;;;14.80;71.49;100674.97;4978639;28;20042;-57
2021/06/07 06:46:30;;;;;;;12.38;10.40;;;;;;;14.82;71.41;100675.88;4978760;28;20042;-57
2021/06/07 06:48:56;;;;;;;12.45;9.98;;;;;;;14.85;71.34;100673.28;4996362;28;20434;-57
2021/06/07 06:51:23;;;;;;;12.10;10.35;;;;;;;14.84;71.40;100672.44;4978329;28;20405;-57
2021/06/07 06:53:55;;;;;;;15.85;12.32;;;;;;;14.86;71.33;100677.66;4979020;28;20038;-57
2021/06/07 06:56:20;;;;;;;26.42;14.80;;;;;;;14.87;71.48;100675.03;4978369;28;20085;-57
2021/06/07 06:58:48;;;;;;;17.58;13.88;;;;;;;14.90;71.71;100682.91;4996033;28;20455;-57
2021/06/07 07:01:14;;;;;;;19.02;14.77;;;;;;;14.91;71.53;100675.97;4996421;28;20038;-57
2021/06/07 07:03:44;;;;;;;17.35;13.18;;;;;;;14.93;71.64;100679.47;4996140;28;20508;-57
2021/06/07 07:06:12;;;;;;;17.58;13.23;;;;;;;14.95;71.44;100682.94;4996126;28;20038;-57
2021/06/07 07:08:37;;;;;;;21.38;14.52;;;;;;;14.96;71.55;100679.47;4995957;28;20069;-57
2021/06/07 07:11:06;;;;;;;23.67;16.35;;;;;;;14.99;71.40;100682.09;4996052;28;20076;-56
2021/06/07 07:13:34;;;;;;;22.08;16.33;;;;;;;15.01;71.61;100683.00;4995637;28;20038;-57
2021/06/07 07:16:06;;;;;;;22.58;17.65;;;;;;;15.04;71.51;100684.75;4995669;28;20409;-57
2021/06/07 07:18:31;;;;;;;23.63;16.67;;;;;;;15.06;71.74;100685.63;4996046;28;20073;-57
2021/06/07 07:21:01;;;;;;;23.60;16.67;;;;;;;15.09;71.66;100683.06;4995692;28;20074;-56
2021/06/07 07:23:29;;;;;;;22.45;17.23;;;;;;;15.11;71.72;100680.44;4995666;28;20045;-57
2021/06/07 07:25:54;;;;;;;26.27;18.02;;;;;;;15.13;71.68;100681.34;4978180;28;20136;-57
2021/06/07 07:28:23;;;;;;;23.10;17.60;;;;;;;15.15;71.83;100687.44;4995766;28;20121;-57
2021/06/07 07:30:48;;;;;;;21.13;17.73;;;;;;;15.17;71.70;100691.84;4961897;28;20035;-57
2021/06/07 07:33:18;;;;;;;20.30;17.30;;;;;;;15.18;71.78;100687.47;4978339;28;20188;-57
2021/06/07 07:35:46;;;;;;;22.70;17.17;;;;;;;15.18;71.83;100693.56;4962140;28;20042;-57
2021/06/07 07:38:20;;;;;;;21.85;16.83;;;;;;;15.18;71.93;100690.94;4961779;28;20038;-57
2021/06/07 07:40:48;;;;;;;28.10;18.30;;;;;;;15.21;71.83;100693.59;4978485;28;20414;-57
2021/06/07 07:43:17;;;;;;;26.85;17.20;;;;;;;15.20;71.78;100689.22;4995123;28;20050;-56
2021/06/07 07:45:42;;;;;;;19.85;16.75;;;;;;;15.22;71.89;100697.94;4994876;28;20097;-57
2021/06/07 07:48:09;;;;;;;24.02;17.20;;;;;;;15.23;71.82;100691.84;4977531;28;20034;-57
2021/06/07 07:50:35;;;;;;;22.30;16.42;;;;;;;15.26;71.83;100692.75;4994871;28;20034;-57
2021/06/07 07:53:02;;;;;;;20.38;16.73;;;;;;;15.26;71.80;100700.59;4977809;28;20085;-57
2021/06/07 07:55:30;;;;;;;18.67;15.50;;;;;;;15.27;71.90;100697.09;4994780;28;20041;-57
2021/06/07 07:57:57;;;;;;;23.63;17.67;;;;;;;15.29;71.90;100695.38;4995175;28;20034;-56
2021/06/07 08:00:26;;;;;;;23.50;17.92;;;;;;;15.29;71.94;100690.16;4994839;28;20065;-57
2021/06/07 08:03:06;;;;;;;30.75;17.65;;;;;;;15.31;71.79;100696.28;4994846;28;20054;-57
2021/06/07 08:05:36;;;;;;;22.55;17.13;;;;;;;15.32;71.83;100695.41;4977732;28;20528;-57
2021/06/07 08:08:03;;;;;;;21.08;17.45;;;;;;;15.33;71.95;100692.81;4995378;28;20034;-57
2021/06/07 08:10:28;;;;;;;25.38;16.55;;;;;;;15.34;71.82;100694.56;4994474;28;20069;-57
2021/06/07 08:12:54;;;;;;;22.42;16.90;;;;;;;15.35;71.85;100692.81;4994799;28;20069;-57
2021/06/07 08:15:23;;;;;;;23.05;18.63;;;;;;;15.36;72.13;100681.50;4995041;28;20489;-57
2021/06/07 08:17:48;;;;;;;20.40;15.95;;;;;;;15.38;71.90;100690.22;4994225;28;20045;-57
2021/06/07 08:20:18;;;;;;;23.38;18.00;;;;;;;15.38;72.02;100685.88;4994373;28;20038;-57
2021/06/07 08:22:50;;;;;;;21.65;17.35;;;;;;;15.39;72.03;100691.97;4977361;28;20097;-57
2021/06/07 08:25:22;;;;;;;22.05;17.15;;;;;;;15.41;72.14;100692.00;4977423;28;20034;-57
2021/06/07 08:27:49;;;;;;;24.30;19.20;;;;;;;15.41;71.98;100692.84;4994450;28;20035;-56
2021/06/07 08:30:19;;;;;;;28.10;18.50;;;;;;;15.44;72.10;100697.22;4994456;28;20038;-57
2021/06/07 08:32:45;;;;;;;21.08;17.65;;;;;;;15.44;72.07;100695.50;4994466;28;20049;-57
2021/06/07 08:35:14;;;;;;;20.08;16.70;;;;;;;15.45;72.07;100699.84;4976820;28;20026;-57
2021/06/07 08:37:39;;;;;;;19.80;17.13;;;;;;;15.45;71.84;100694.63;4977061;28;20504;-57
2021/06/07 08:40:11;;;;;;;18.73;16.63;;;;;;;15.47;71.70;100687.69;4994280;28;20125;-57
2021/06/07 08:42:42;;;;;;;20.77;14.80;;;;;;;15.48;71.83;100699.88;4994320;28;20042;-57
2021/06/07 08:45:11;;;;;;;16.55;13.85;;;;;;;15.49;71.68;100693.75;4976723;28;20030;-57
2021/06/07 08:47:40;;;;;;;20.70;13.52;;;;;;;15.52;71.83;100692.94;4994180;28;20092;-56
2021/06/07 08:50:06;;;;;;;17.33;14.30;;;;;;;15.54;71.90;100693.81;4977314;28;20058;-57
2021/06/07 08:52:32;;;;;;;19.73;14.93;;;;;;;15.57;71.85;100700.78;4994125;28;20113;-57
2021/06/07 08:54:58;;;;;;;18.48;14.75;;;;;;;15.58;71.66;100687.72;4994449;28;20061;-57
2021/06/07 08:57:25;;;;;;;18.05;14.43;;;;;;;15.60;71.65;100688.59;4994147;28;20486;-57
2021/06/07 08:59:50;;;;;;;16.48;12.85;;;;;;;15.63;71.46;100687.78;4994044;28;20092;-56
2021/06/07 09:02:32;;;;;;;19.35;13.55;;;;;;;15.65;71.73;100693.84;4993402;28;20042;-57
2021/06/07 09:05:00;;;;;;;18.73;12.48;;;;;;;15.67;71.59;100692.13;4993945;28;20133;-57
2021/06/07 09:07:31;;;;;;;17.13;13.18;;;;;;;15.68;71.49;100686.91;4976531;28;20037;-57
2021/06/07 09:10:13;;;;;;;18.15;12.95;;;;;;;15.70;71.39;100686.91;4976706;28;20038;-57
2021/06/07 09:12:42;;;;;;;15.50;12.65;;;;;;;15.73;71.52;100686.03;4993912;28;20064;-56
2021/06/07 09:15:14;;;;;;;18.52;12.57;;;;;;;15.76;71.54;100691.28;4993845;28;20528;-56
2021/06/07 09:17:46;;;;;;;14.00;12.50;;;;;;;15.77;71.53;100682.59;4976810;28;20034;-56
2021/06/07 09:20:18;;;;;;;12.85;11.55;;;;;;;15.76;71.28;100686.97;4994081;28;20027;-56
2021/06/07 09:22:57;;;;;;;13.18;11.80;;;;;;;15.77;71.55;100693.03;4993920;28;20038;-56
2021/06/07 09:25:32;;;;;;;14.52;12.95;;;;;;;15.79;71.33;100691.31;4994189;28;20070;-56
2021/06/07 09:28:02;;;;;;;;;;;;;;;15.78;71.25;100685.22;4994592;28;20100;-56
2021/06/07 09:30:33;;;;;;;14.52;12.40;;;;;;;15.82;71.49;100689.59;4993850;28;20023;-56
2021/06/07 09:33:22;;;;;;;15.75;12.43;;;;;;;15.84;71.23;100694.84;4994058;28;20035;-56
2021/06/07 09:36:08;;;;;;;16.17;12.60;;;;;;;15.86;71.18;100694.88;4994306;28;20513;-55
2021/06/07 09:38:54;;;;;;;13.00;11.38;;;;;;;15.85;71.24;100694.00;4992752;28;20502;-56
2021/06/07 09:41:23;;;;;;;15.32;12.05;;;;;;;15.89;71.30;100694.88;4962528;28;20055;-56
2021/06/07 09:43:51;;;;;;;13.00;11.02;;;;;;;15.91;71.08;100693.16;4993468;28;20038;-56
2021/06/07 09:46:19;;;;;;;13.32;11.75;;;;;;;15.93;71.06;100700.13;4976310;28;20053;-55
2021/06/07 09:48:47;;;;;;;13.30;11.90;;;;;;;15.95;71.12;100693.16;4993604;28;20042;-56
2021/06/07 09:51:21;;;;;;;12.43;10.32;;;;;;;15.98;71.03;100690.56;4993561;28;20097;-55
2021/06/07 09:53:55;;;;;;;16.73;12.20;;;;;;;16.02;71.05;100687.97;4993865;28;20077;-55
2021/06/07 09:56:22;;;;;;;13.35;9.85;;;;;;;16.05;71.05;100691.47;4993508;28;20042;-55
2021/06/07 09:58:48;;;;;;;12.25;10.95;;;;;;;16.06;70.98;100690.59;4993273;28;20030;-55
2021/06/07 10:01:20;;;;;;;13.40;11.52;;;;;;;16.09;71.09;100689.72;4960459;28;20138;-55
2021/06/07 10:03:56;;;;;;;14.60;11.02;;;;;;;16.09;70.94;100685.38;4994027;28;20050;-57
2021/06/07 10:06:25;;;;;;;12.40;9.63;;;;;;;16.10;70.87;100691.47;4993406;28;20593;-55
2021/06/07 10:09:00;;;;;;;10.82;9.65;;;;;;;16.12;70.96;100689.75;4993317;28;20129;-57
2021/06/07 10:11:29;;;;;;;11.27;8.82;;;;;;;16.14;70.88;100688.88;4960701;28;20042;-57
2021/06/07 10:14:13;;;;;;;12.07;8.95;;;;;;;16.16;70.83;100685.38;4975766;28;20096;-56
2021/06/07 10:17:00;;;;;;;11.57;8.90;;;;;;;16.17;70.84;100692.38;4997029;28;20026;-57
2021/06/07 10:22:30;;;;;;;10.50;7.93;;;;;;;16.18;70.66;100684.53;4910460;28;20525;-56
2021/06/07 10:24:59;;;;;;;8.40;6.70;;;;;;;16.21;70.64;100686.28;4996447;28;20042;-56
2021/06/07 10:27:27;;;;;;;10.52;7.97;;;;;;;16.25;70.70;100688.06;4979448;28;20445;-56
2021/06/07 10:29:52;;;;;;;10.77;8.27;;;;;;;16.27;70.52;100689.78;4978737;28;20402;-56
2021/06/07 10:32:28;;;;;;;9.60;7.95;;;;;;;16.28;70.31;100685.41;4997120;28;20041;-56
2021/06/07 10:35:02;;;;;;;9.77;8.05;;;;;;;16.30;70.44;100686.31;4996753;28;20192;-56
2021/06/07 10:37:31;;;;;;;;;;;;;;;16.29;70.48;100687.16;4996753;28;20038;-55
2021/06/07 10:40:15;;;;;;;9.75;7.43;;;;;;;16.29;70.63;100681.94;4996536;28;19917;-55
2021/06/07 10:43:05;;;;;;;8.25;7.10;;;;;;;16.29;70.62;100688.06;4979341;28;20057;-55
2021/06/07 10:45:33;;;;;;;10.77;7.82;;;;;;;16.31;70.41;100682.81;4996824;28;20042;-56
2021/06/07 10:48:02;;;;;;;8.98;7.57;;;;;;;16.32;70.40;100681.94;4978982;28;20433;-56
2021/06/07 10:50:34;;;;;;;11.10;8.23;;;;;;;16.34;70.45;100680.22;4996131;28;20026;-56
2021/06/07 10:53:06;;;;;;;11.20;8.77;;;;;;;16.35;70.29;100678.50;4978945;28;20089;-57
2021/06/07 10:55:38;;;;;;;15.55;9.55;;;;;;;16.36;70.38;100677.59;4996718;28;20509;-57
2021/06/07 10:58:12;;;;;;;10.63;8.80;;;;;;;16.37;70.41;100676.72;4996210;28;20046;-56
2021/06/07 11:00:43;;;;;;;13.30;9.80;;;;;;;16.36;70.25;100678.47;4978822;28;20089;-56
2021/06/07 11:03:23;;;;;;;13.80;9.20;;;;;;;16.37;70.44;100669.78;4995963;28;20137;-57
2021/06/07 11:05:53;;;;;;;11.98;8.85;;;;;;;16.40;70.18;100681.97;4963002;28;20041;-57
2021/06/07 11:08:25;;;;;;;12.65;9.50;;;;;;;16.43;70.20;100675.00;4978685;28;20084;-57
2021/06/07 11:11:03;;;;;;;13.52;8.80;;;;;;;16.48;69.97;100676.75;4995923;28;20441;-55
2021/06/07 11:13:43;;;;;;;16.23;10.13;;;;;;;16.52;70.06;100675.91;4996283;28;20065;-54
2021/06/07 11:16:08;;;;;;;10.43;8.57;;;;;;;16.52;69.93;100682.00;4978236;28;20038;-54
2021/06/07 11:18:37;;;;;;;15.60;10.30;;;;;;;16.56;70.13;100680.28;4995929;28;20104;-54
2021/06/07 11:21:09;;;;;;;14.05;11.85;;;;;;;16.58;70.05;100684.63;4995618;28;20034;-54
2021/06/07 11:23:42;;;;;;;15.43;12.38;;;;;;;16.59;70.23;100680.25;4978246;28;20142;-54
2021/06/07 11:26:11;;;;;;;14.88;12.15;;;;;;;16.61;69.97;100669.81;4995275;28;20081;-54
2021/06/07 11:28:38;;;;;;;14.68;11.55;;;;;;;16.62;69.97;100663.69;4995074;28;20046;-54
2021/06/07 11:31:23;;;;;;;16.77;11.93;;;;;;;16.65;69.92;100663.72;4995594;28;20074;-54
2021/06/07 11:33:57;;;;;;;18.25;12.52;;;;;;;16.65;70.00;100661.09;4977745;28;20043;-54